Time;durP1;ratioP1;P1;durP2;ratioP2;P2;SDS_P1;SDS_P2;PMS_P1;PMS_P2;Temp;Humidity;BMP_temperature;BMP_pressure;BME280_temperature;BME280_humidity;BME280_pressure;Samples;Min_cycle;Max_cycle;Signal;HPM_P1;HPM_P2
2022/10/01 00:00:47;;;;;;;5.51;4.94;;;;;;;15.97;97.91;101116.03;446287;119;922745;-78
2022/10/01 00:01:50;;;;;;;6.63;5.99;;;;;;;15.99;97.97;101124.06;446098;119;923007;-77
2022/10/01 00:02:53;;;;;;;5.80;5.33;;;;;;;15.99;97.99;101116.61;446336;119;922513;-78
2022/10/01 00:03:56;;;;;;;5.62;5.15;;;;;;;15.99;97.99;101119.37;446365;119;922854;-78
2022/10/01 00:04:59;;;;;;;6.35;5.64;;;;;;;16.00;98.00;101123.80;446338;119;922962;-79
2022/10/01 00:06:05;;;;;;;6.51;5.63;;;;;;;16.00;97.69;101129.30;446389;119;922831;-79
2022/10/01 00:07:13;;;;;;;5.96;5.44;;;;;;;16.00;97.69;101129.30;445044;118;922537;-78
2022/10/01 00:08:14;;;;;;;6.43;5.91;;;;;;;16.00;98.01;101114.70;443760;119;922486;-78
2022/10/01 00:09:17;;;;;;;5.78;5.39;;;;;;;16.00;98.02;101118.30;443929;119;922376;-79
2022/10/01 00:10:29;;;;;;;6.67;6.16;;;;;;;16.01;98.04;101116.39;443574;118;930629;31
2022/10/01 00:11:34;;;;;;;6.51;6.07;;;;;;;16.01;98.07;101125.48;447721;116;922531;-79
2022/10/01 00:12:43;;;;;;;7.08;5.84;;;;;;;16.01;98.08;101119.98;444840;119;922553;-79
2022/10/01 00:13:46;;;;;;;6.29;5.78;;;;;;;16.02;98.04;101123.56;464545;114;930522;-78
2022/10/01 00:14:49;;;;;;;6.08;5.63;;;;;;;16.01;98.07;101119.98;464714;114;922941;-80
2022/10/01 00:15:52;;;;;;;7.72;6.96;;;;;;;16.02;98.08;101118.91;459789;114;922778;-78
2022/10/01 00:16:55;;;;;;;6.25;5.74;;;;;;;16.02;98.09;101123.56;463599;114;922451;-80
2022/10/01 00:17:58;;;;;;;6.53;5.96;;;;;;;16.03;98.10;101117.00;463633;114;922940;-79
2022/10/01 00:19:01;;;;;;;6.50;5.71;;;;;;;16.03;98.14;101125.25;463615;114;922476;-79
2022/10/01 00:20:05;;;;;;;6.70;6.15;;;;;;;16.02;98.19;101115.31;463452;114;922959;-78
2022/10/01 00:21:13;;;;;;;7.79;5.49;;;;;;;16.03;98.15;101117.00;443963;119;930502;-78
2022/10/01 00:22:17;;;;;;;6.65;6.13;;;;;;;16.03;98.14;101119.75;454177;116;922670;-80
2022/10/01 00:23:20;;;;;;;7.01;6.31;;;;;;;16.03;98.26;101117.84;454265;116;923100;-78
2022/10/01 00:24:23;;;;;;;7.11;6.44;;;;;;;16.04;98.22;101116.77;454266;116;922519;-78
2022/10/01 00:25:26;;;;;;;7.89;7.01;;;;;;;16.05;98.25;101110.17;454214;116;922700;-79
2022/10/01 00:26:32;;;;;;;7.03;6.45;;;;;;;16.04;98.25;101111.27;454262;116;922561;-79
2022/10/01 00:28:02;;;;;;;6.13;5.63;;;;;;;16.04;98.27;101111.27;454045;116;922945;-75
2022/10/01 00:29:14;;;;;;;6.66;6.06;;;;;;;16.06;98.66;101111.00;454395;116;922500;-78
2022/10/01 00:30:17;;;;;;;6.66;6.07;;;;;;;16.06;98.66;101111.00;452556;116;931182;-78
2022/10/01 00:31:20;;;;;;;7.01;6.14;;;;;;;16.05;98.47;101103.83;454294;116;922577;-78
2022/10/01 00:32:24;;;;;;;6.99;6.28;;;;;;;16.05;98.48;101098.33;455418;116;923047;-79
2022/10/01 00:33:27;;;;;;;7.11;6.53;;;;;;;16.05;98.51;101107.42;455613;116;922853;-78
2022/10/01 00:34:30;;;;;;;6.43;5.97;;;;;;;16.05;98.57;101101.91;455499;116;922510;-79
2022/10/01 00:35:32;;;;;;;6.32;5.79;;;;;;;16.05;98.56;101104.66;455448;116;922753;-79
2022/10/01 00:36:35;;;;;;;6.71;6.08;;;;;;;16.07;98.52;101107.19;455477;116;922510;-81
2022/10/01 00:37:38;;;;;;;6.24;5.64;;;;;;;16.06;98.51;101109.09;455434;116;930560;-79
2022/10/01 00:38:41;;;;;;;6.35;5.81;;;;;;;16.06;98.50;101113.76;455509;116;922674;-79
2022/10/01 00:39:44;;;;;;;7.30;6.12;;;;;;;16.06;98.52;101111.84;455526;116;922610;-79
2022/10/01 00:40:47;;;;;;;7.21;5.66;;;;;;;16.07;98.55;101109.94;455474;116;923066;-78
2022/10/01 00:41:50;;;;;;;5.69;5.11;;;;;;;16.07;98.56;101109.94;455471;116;922653;-78
2022/10/01 00:42:53;;;;;;;8.38;6.21;;;;;;;16.07;98.58;101108.03;455527;116;922436;-80
2022/10/01 00:43:59;;;;;;;6.67;6.04;;;;;;;16.08;98.54;101108.87;455511;116;922557;-79
2022/10/01 00:45:02;;;;;;;6.29;5.68;;;;;;;16.06;98.56;101106.34;455227;116;922558;-79
2022/10/01 00:46:24;;;;;;;6.84;6.34;;;;;;;16.06;98.63;101102.75;455444;116;922983;-79
2022/10/01 00:47:38;;;;;;;6.47;5.97;;;;;;;16.07;98.66;101099.77;454817;116;923233;-80
2022/10/01 00:49:00;;;;;;;6.96;6.45;;;;;;;16.06;98.65;101100.84;455233;116;923330;-81
2022/10/01 00:50:27;;;;;;;6.33;5.88;;;;;;;16.17;98.70;101097.27;482272;110;947178;-79
2022/10/01 00:51:33;;;;;;;8.29;6.88;;;;;;;16.05;98.71;101098.33;473719;112;922990;-79
2022/10/01 00:52:39;;;;;;;7.33;6.06;;;;;;;16.04;98.78;101102.17;467849;112;922731;-78
2022/10/01 00:53:45;;;;;;;7.25;6.44;;;;;;;16.04;98.79;101105.77;465281;114;923000;-79
2022/10/01 00:54:51;;;;;;;6.98;6.39;;;;;;;16.03;98.83;101094.99;465313;114;922613;-79
2022/10/01 00:55:57;;;;;;;6.31;5.81;;;;;;;16.03;98.72;101101.34;465347;114;922569;-80
2022/10/01 00:57:01;;;;;;;11.09;5.92;;;;;;;16.03;98.67;101101.34;465310;114;922906;-79
2022/10/01 00:58:07;;;;;;;6.91;6.28;;;;;;;16.03;98.71;101106.84;465383;113;922511;-78
2022/10/01 00:59:12;;;;;;;6.17;5.50;;;;;;;16.04;98.69;101099.42;465305;114;922925;-79
2022/10/01 01:00:15;;;;;;;8.36;6.48;;;;;;;16.03;98.58;101094.99;465366;114;922474;-79
2022/10/01 01:01:19;;;;;;;6.39;5.87;;;;;;;16.02;98.51;101091.41;465553;114;923044;-78
2022/10/01 01:02:22;;;;;;;6.33;5.87;;;;;;;16.03;98.50;101092.24;465423;113;922525;-79
2022/10/01 01:03:25;;;;;;;7.03;6.01;;;;;;;16.03;98.46;101087.58;465453;114;930561;-79
2022/10/01 01:04:28;;;;;;;7.51;5.47;;;;;;;16.02;98.42;101094.16;465390;113;922568;-78
2022/10/01 01:05:31;;;;;;;6.91;6.23;;;;;;;16.01;98.31;101100.73;465372;114;930518;-78
2022/10/01 01:06:34;;;;;;;6.54;5.84;;;;;;;16.02;98.31;101098.81;465423;114;922517;-78
2022/10/01 01:07:39;;;;;;;6.57;6.02;;;;;;;16.01;98.36;101095.22;465482;114;922966;-79
2022/10/01 01:08:42;;;;;;;7.15;6.02;;;;;;;16.01;98.25;101095.22;465332;114;922504;-78
2022/10/01 01:09:48;;;;;;;6.29;5.79;;;;;;;16.00;98.24;101099.05;465352;114;922924;-79
2022/10/01 01:11:20;;;;;;;6.21;5.74;;;;;;;16.00;98.24;101110.05;465289;114;922835;-79
2022/10/01 01:12:26;;;;;;;7.02;6.41;;;;;;;15.99;98.19;101105.61;465324;114;922472;-78
2022/10/01 01:13:46;;;;;;;6.81;6.26;;;;;;;15.97;98.12;101102.28;465218;114;923049;-79
2022/10/01 01:15:03;;;;;;;6.79;6.13;;;;;;;16.07;98.27;101102.53;476372;110;946852;-79
2022/10/01 01:16:25;;;;;;;6.03;5.44;;;;;;;15.96;98.22;101106.10;456694;115;922976;-79
2022/10/01 01:17:51;;;;;;;9.92;6.56;;;;;;;15.95;98.20;101109.92;456203;116;922551;-78
2022/10/01 01:19:21;;;;;;;6.46;5.54;;;;;;;15.94;98.24;101110.16;457143;116;922505;-80
2022/10/01 01:20:35;;;;;;;6.04;5.51;;;;;;;15.92;98.24;101113.16;455459;116;923238;-78
2022/10/01 01:21:44;;;;;;;6.11;5.64;;;;;;;15.91;98.24;101119.73;457085;116;930480;-79
2022/10/01 01:22:56;;;;;;;6.37;5.82;;;;;;;15.89;98.32;101123.78;457139;116;922525;-79
2022/10/01 01:24:12;;;;;;;7.73;6.71;;;;;;;15.88;98.33;101125.69;456323;116;923008;-81
2022/10/01 01:25:18;;;;;;;6.22;5.76;;;;;;;15.88;98.38;101125.69;456518;116;922946;-78
2022/10/01 01:26:30;;;;;;;6.92;6.25;;;;;;;15.86;98.32;101127.85;457064;116;922462;-78
2022/10/01 01:27:37;;;;;;;5.96;5.46;;;;;;;15.86;98.27;101127.85;456585;116;922482;-78
2022/10/01 01:28:43;;;;;;;6.43;5.88;;;;;;;15.86;98.31;101130.61;456955;116;922512;-78
2022/10/01 01:30:03;;;;;;;6.31;5.86;;;;;;;15.85;98.28;101128.92;457175;116;923052;-79
2022/10/01 01:31:13;;;;;;;5.86;5.29;;;;;;;15.85;98.32;101127.02;457333;116;922975;-78
2022/10/01 01:32:20;;;;;;;5.74;5.27;;;;;;;15.85;98.31;101131.67;457122;116;922493;-78
2022/10/01 01:33:26;;;;;;;6.83;6.20;;;;;;;15.84;98.20;101138.24;456921;115;922608;-80
2022/10/01 01:34:32;;;;;;;6.96;6.51;;;;;;;15.84;98.21;101130.83;464342;113;922599;-78
2022/10/01 01:35:39;;;;;;;6.46;5.89;;;;;;;15.83;98.17;101137.40;464847;114;922536;-79
2022/10/01 01:36:45;;;;;;;6.61;5.97;;;;;;;15.82;98.12;101132.97;464871;114;922495;-81
2022/10/01 01:37:52;;;;;;;5.54;4.93;;;;;;;15.82;98.12;101132.16;464861;114;922880;-79
2022/10/01 01:38:58;;;;;;;7.19;6.46;;;;;;;15.82;98.11;101132.16;464957;114;922523;-81
2022/10/01 01:40:05;;;;;;;5.39;4.98;;;;;;;15.81;98.10;101128.56;464911;114;922518;-78
2022/10/01 01:41:10;;;;;;;6.13;5.53;;;;;;;15.81;98.10;101130.48;464923;114;922673;-80
2022/10/01 01:42:17;;;;;;;6.11;5.61;;;;;;;15.82;98.19;101126.66;464870;114;922828;-79
2022/10/01 01:43:23;;;;;;;6.41;5.84;;;;;;;15.82;98.19;101126.66;464901;114;923062;-80
2022/10/01 01:44:30;;;;;;;6.05;5.52;;;;;;;15.83;98.16;101128.31;464698;114;922530;-79
2022/10/01 01:45:35;;;;;;;6.13;5.63;;;;;;;15.82;98.19;101124.72;464872;114;922535;-79
2022/10/01 01:46:42;;;;;;;6.24;5.73;;;;;;;15.83;98.12;101128.31;464901;114;922632;-78
2022/10/01 01:47:45;;;;;;;5.76;5.29;;;;;;;15.81;98.12;101128.56;464873;114;922503;-80
2022/10/01 01:48:52;;;;;;;6.73;6.23;;;;;;;15.82;98.10;101126.66;465013;114;923024;-78
2022/10/01 01:49:56;;;;;;;6.98;6.22;;;;;;;15.81;98.11;101125.81;464747;114;931086;-79
2022/10/01 01:51:05;;;;;;;6.62;6.15;;;;;;;15.80;98.08;101126.89;465054;114;922831;-78
2022/10/01 01:52:14;;;;;;;5.99;5.47;;;;;;;15.81;98.04;101127.73;463061;114;922805;-79
2022/10/01 01:53:19;;;;;;;6.24;5.66;;;;;;;15.79;98.04;101119.70;457203;116;922957;-78
2022/10/01 01:54:22;;;;;;;6.54;6.04;;;;;;;15.80;98.02;101128.80;457331;115;922567;-78
2022/10/01 01:55:28;;;;;;;6.76;6.09;;;;;;;15.81;97.99;101119.48;457494;113;922714;-78
2022/10/01 01:56:33;;;;;;;7.03;6.41;;;;;;;15.79;97.99;101113.36;457231;116;923299;-78
2022/10/01 01:57:42;;;;;;;6.87;6.03;;;;;;;15.79;97.99;101111.45;457354;115;922504;-78
2022/10/01 01:58:45;;;;;;;9.01;6.04;;;;;;;15.80;98.12;101115.05;457307;116;922517;-78
2022/10/01 01:59:48;;;;;;;6.08;5.46;;;;;;;15.80;98.10;101115.89;457321;116;922437;-80
2022/10/01 02:00:51;;;;;;;6.79;6.24;;;;;;;15.81;98.14;101114.82;457387;113;924567;-80
2022/10/01 02:01:54;;;;;;;6.13;5.39;;;;;;;15.82;98.12;101115.66;457426;116;923128;-81
2022/10/01 02:02:57;;;;;;;6.53;5.92;;;;;;;15.81;98.11;101111.23;457464;116;922510;-81
2022/10/01 02:04:04;;;;;;;6.47;6.07;;;;;;;15.80;98.02;101104.89;457449;116;922968;-76
2022/10/01 02:05:10;;;;;;;6.61;5.94;;;;;;;15.80;98.03;101104.89;457197;116;923032;-78
2022/10/01 02:06:20;;;;;;;6.73;6.09;;;;;;;15.81;98.09;101111.23;457236;115;922488;-78
2022/10/01 02:07:54;;;;;;;6.45;5.92;;;;;;;15.80;98.02;101102.14;456112;116;923098;-79
2022/10/01 02:09:01;;;;;;;6.37;5.73;;;;;;;15.81;98.04;101108.48;457311;116;923051;-79
2022/10/01 02:10:25;;;;;;;6.42;5.94;;;;;;;15.81;98.07;101108.48;457287;113;923214;-80
2022/10/01 02:11:38;;;;;;;6.58;5.98;;;;;;;15.80;98.13;101109.55;456663;115;923066;-79
2022/10/01 02:13:04;;;;;;;6.28;5.73;;;;;;;15.79;98.09;101116.95;457272;116;923077;-79
2022/10/01 02:14:13;;;;;;;5.72;5.28;;;;;;;15.79;98.08;101116.11;442964;119;922776;-77
2022/10/01 02:15:26;;;;;;;6.41;5.87;;;;;;;15.78;98.12;101119.93;457477;113;923129;-78
2022/10/01 02:16:49;;;;;;;7.93;6.32;;;;;;;15.76;98.00;101120.20;450372;117;922873;-77
2022/10/01 02:18:02;;;;;;;5.99;5.56;;;;;;;15.74;98.01;101122.33;450374;117;923575;-78
2022/10/01 02:19:32;;;;;;;6.42;5.99;;;;;;;15.74;97.99;101122.33;450395;117;922546;-78
2022/10/01 02:20:44;;;;;;;8.31;6.12;;;;;;;15.71;97.93;101125.53;450256;115;922601;-80
2022/10/01 02:21:51;;;;;;;7.35;6.77;;;;;;;15.70;98.03;101123.04;449646;117;922492;-80
2022/10/01 02:22:57;;;;;;;7.16;6.66;;;;;;;15.70;98.07;101128.54;450079;117;923062;-79
2022/10/01 02:24:16;;;;;;;7.06;6.35;;;;;;;15.69;98.17;101129.61;450330;117;922590;-78
2022/10/01 02:25:25;;;;;;;6.94;6.36;;;;;;;15.69;98.24;101115.86;449520;115;922870;-80
2022/10/01 02:26:29;;;;;;;7.28;6.67;;;;;;;15.69;98.42;101122.20;450285;117;923012;-81
2022/10/01 02:27:43;;;;;;;6.99;6.44;;;;;;;15.69;98.36;101126.86;450278;117;923065;-81
2022/10/01 02:28:49;;;;;;;6.59;6.10;;;;;;;15.69;98.38;101121.36;450263;117;923080;-78
2022/10/01 02:29:55;;;;;;;7.17;6.43;;;;;;;15.69;98.38;101116.70;451540;116;922659;-80
2022/10/01 02:30:59;;;;;;;7.37;6.19;;;;;;;15.70;98.34;101120.29;454206;116;922550;-79
2022/10/01 02:32:02;;;;;;;5.59;5.19;;;;;;;15.70;98.42;101123.88;458171;115;922496;-79
2022/10/01 02:33:08;;;;;;;6.68;6.09;;;;;;;15.72;98.50;101120.88;458375;115;923085;-79
2022/10/01 02:34:14;;;;;;;6.34;5.92;;;;;;;15.72;98.56;101121.72;453307;113;922598;-79
2022/10/01 02:35:20;;;;;;;6.16;5.66;;;;;;;15.75;98.55;101131.42;449951;115;922536;-79
2022/10/01 02:36:24;;;;;;;6.86;6.19;;;;;;;15.77;98.61;101129.25;450345;117;922541;-78
2022/10/01 02:37:28;;;;;;;7.37;6.75;;;;;;;15.77;98.56;101134.75;450337;117;930462;-80
2022/10/01 02:38:34;;;;;;;6.83;6.33;;;;;;;15.79;98.57;101135.36;450553;117;922957;-80
2022/10/01 02:39:40;;;;;;;7.55;6.95;;;;;;;15.79;98.62;101127.95;450309;117;922532;-80
2022/10/01 02:40:46;;;;;;;6.97;6.04;;;;;;;15.81;98.66;101130.48;450290;115;922605;-77
2022/10/01 02:41:51;;;;;;;7.41;6.77;;;;;;;15.81;98.79;101128.56;450337;117;922544;-81
2022/10/01 02:42:57;;;;;;;8.66;7.94;;;;;;;15.84;98.79;101124.49;450269;117;922569;-81
2022/10/01 02:44:06;;;;;;;8.20;7.44;;;;;;;15.87;98.87;101124.03;450325;117;922603;-81
2022/10/01 02:45:12;;;;;;;9.17;7.37;;;;;;;15.87;98.98;101126.78;450146;115;922577;-79
2022/10/01 02:46:31;;;;;;;8.39;7.69;;;;;;;15.89;98.96;101130.12;450330;117;922825;-81
2022/10/01 02:47:46;;;;;;;8.48;7.68;;;;;;;15.91;99.05;101129.89;450026;117;922902;-81
2022/10/01 02:48:50;;;;;;;8.65;7.92;;;;;;;15.93;99.13;101133.25;450245;117;923105;-81
2022/10/01 02:49:53;;;;;;;10.41;7.36;;;;;;;15.94;99.24;101127.50;450392;115;922559;-79
2022/10/01 02:51:03;;;;;;;7.79;7.14;;;;;;;15.97;99.42;101131.70;450521;117;923103;-80
2022/10/01 02:52:24;;;;;;;7.61;6.93;;;;;;;15.98;99.43;101122.38;451418;115;923144;-79
2022/10/01 02:53:40;;;;;;;8.12;7.33;;;;;;;16.01;99.53;101130.14;458142;115;922569;-78
2022/10/01 02:54:52;;;;;;;8.77;7.57;;;;;;;16.04;99.63;101129.69;457550;115;923041;-79
2022/10/01 02:55:57;;;;;;;7.88;7.23;;;;;;;16.05;99.68;101134.92;458202;115;922646;-79
2022/10/01 02:58:21;;;;;;;9.36;8.43;;;;;;;16.10;99.76;101128.70;458154;115;923031;-79
2022/10/01 02:59:25;;;;;;;7.51;6.82;;;;;;;16.12;99.77;101129.31;458378;115;922908;-79
2022/10/01 03:00:28;;;;;;;8.59;7.78;;;;;;;16.13;99.78;101123.58;458309;113;923083;-79
2022/10/01 03:01:31;;;;;;;12.41;7.24;;;;;;;16.15;99.75;101126.11;458360;115;922479;-79
2022/10/01 03:02:34;;;;;;;7.29;6.69;;;;;;;16.16;99.78;101131.34;458243;115;922457;-80
2022/10/01 03:03:40;;;;;;;8.30;7.61;;;;;;;16.18;99.73;101133.87;458363;115;922757;-80
2022/10/01 03:04:42;;;;;;;8.00;7.35;;;;;;;16.19;99.74;101133.64;458067;115;922528;-78
2022/10/01 03:05:44;;;;;;;8.87;7.75;;;;;;;16.19;99.72;101133.64;458223;113;930438;-78
2022/10/01 03:06:47;;;;;;;8.79;8.03;;;;;;;16.20;99.63;101137.23;458278;115;922604;-78
2022/10/01 03:07:50;;;;;;;8.23;7.19;;;;;;;16.21;99.63;101136.97;458265;115;922496;-79
2022/10/01 03:08:53;;;;;;;10.47;7.73;;;;;;;16.22;99.60;101129.55;458247;115;930616;-79
2022/10/01 03:09:56;;;;;;;8.54;7.72;;;;;;;16.22;99.63;101124.05;458210;113;930606;-79
2022/10/01 03:10:59;;;;;;;9.11;7.89;;;;;;;16.23;99.66;101129.33;458304;115;922434;-79
2022/10/01 03:12:03;;;;;;;8.05;7.09;;;;;;;16.24;99.64;101136.52;458238;115;923313;-79
2022/10/01 03:13:06;;;;;;;8.09;7.32;;;;;;;16.23;99.62;101134.83;458374;115;922580;-78
2022/10/01 03:14:09;;;;;;;9.14;7.94;;;;;;;16.26;99.68;101128.03;458283;115;923036;-78
2022/10/01 03:15:14;;;;;;;9.00;8.08;;;;;;;16.27;99.70;101129.67;457823;113;922592;-81
2022/10/01 03:16:17;;;;;;;8.52;7.86;;;;;;;16.28;99.77;101126.69;457088;115;930517;-79
2022/10/01 03:17:20;;;;;;;9.13;8.34;;;;;;;16.30;99.78;101129.22;457272;116;922859;-79
2022/10/01 03:18:23;;;;;;;10.70;8.49;;;;;;;16.30;99.76;101129.22;457322;115;923060;-77
2022/10/01 03:19:26;;;;;;;8.66;7.93;;;;;;;16.31;99.73;101124.55;457281;116;922873;-78
2022/10/01 03:20:29;;;;;;;9.11;8.26;;;;;;;16.32;99.78;101117.98;457128;116;922467;-81
2022/10/01 03:21:32;;;;;;;10.67;9.33;;;;;;;16.33;99.74;101134.23;457244;116;922585;-79
2022/10/01 03:22:35;;;;;;;9.81;8.83;;;;;;;16.34;99.81;101135.91;457138;116;922884;-78
2022/10/01 03:23:38;;;;;;;9.74;8.93;;;;;;;16.34;99.83;101138.66;457171;116;930545;-79
2022/10/01 03:24:41;;;;;;;9.38;8.34;;;;;;;16.36;99.75;101135.67;457249;116;922485;-79
2022/10/01 03:25:43;;;;;;;11.84;9.61;;;;;;;16.35;99.83;101137.59;457115;116;930335;-80
2022/10/01 03:26:46;;;;;;;10.71;9.23;;;;;;;16.37;99.80;101140.11;457139;116;930538;-78
2022/10/01 03:27:49;;;;;;;11.04;9.93;;;;;;;16.37;99.78;101134.61;457198;116;930614;-80
2022/10/01 03:28:52;;;;;;;10.56;9.56;;;;;;;16.37;99.82;101134.61;457233;116;922494;-81
2022/10/01 03:29:54;;;;;;;10.29;9.29;;;;;;;16.37;99.91;101132.70;456134;115;923074;-80
2022/10/01 03:31:05;;;;;;;11.64;9.27;;;;;;;16.38;99.87;101136.25;454145;116;922837;-80
2022/10/01 03:32:09;;;;;;;10.63;9.61;;;;;;;16.38;99.91;101139.01;453809;117;930499;-79
2022/10/01 03:33:11;;;;;;;11.00;10.01;;;;;;;16.39;99.93;101133.27;454087;117;922538;-79
2022/10/01 03:34:14;;;;;;;10.76;9.87;;;;;;;16.40;100.00;101145.13;461331;113;922833;-78
2022/10/01 03:35:17;;;;;;;10.24;9.25;;;;;;;16.41;100.00;101142.14;464912;114;923056;-78
2022/10/01 03:36:20;;;;;;;10.85;10.01;;;;;;;16.42;99.97;101140.23;464923;114;923024;-77
2022/10/01 03:37:23;;;;;;;10.59;9.50;;;;;;;16.42;99.97;101146.57;464979;114;922991;-79
2022/10/01 03:38:26;;;;;;;11.00;9.54;;;;;;;16.41;99.97;101147.64;464896;114;930566;-78
2022/10/01 03:39:30;;;;;;;10.71;9.84;;;;;;;16.42;99.98;101151.23;464993;114;922524;-79
2022/10/01 03:40:36;;;;;;;10.51;9.53;;;;;;;16.43;99.94;101150.16;464955;114;922748;-80
2022/10/01 03:41:38;;;;;;;11.50;10.06;;;;;;;16.42;99.91;101148.48;464812;114;922918;-79
2022/10/01 03:42:41;;;;;;;10.23;9.35;;;;;;;16.43;99.99;101148.22;464987;114;922538;-78
2022/10/01 03:43:44;;;;;;;11.97;10.82;;;;;;;16.44;100.00;101151.81;464965;114;922463;-80
2022/10/01 03:44:47;;;;;;;10.68;9.74;;;;;;;16.45;100.00;101153.49;465020;114;922570;-79
2022/10/01 03:45:50;;;;;;;11.43;10.30;;;;;;;16.47;100.00;101154.11;464963;114;922950;-80
2022/10/01 03:46:53;;;;;;;11.46;10.26;;;;;;;16.47;100.00;101156.86;465043;114;922490;-80
2022/10/01 03:47:56;;;;;;;12.40;11.35;;;;;;;16.46;100.00;101156.02;464980;114;922537;-79
2022/10/01 03:48:59;;;;;;;12.21;10.89;;;;;;;16.46;99.96;101152.42;464999;114;922360;-79
2022/10/01 03:50:02;;;;;;;12.24;10.73;;;;;;;16.45;99.91;101159.84;464827;114;930202;-79
2022/10/01 03:51:05;;;;;;;12.18;10.95;;;;;;;16.44;99.94;101155.41;464938;114;930330;-81
2022/10/01 03:52:08;;;;;;;12.16;10.99;;;;;;;16.45;99.95;101161.75;463534;114;922597;-80
2022/10/01 03:53:11;;;;;;;13.21;10.71;;;;;;;16.44;99.93;101157.32;457353;116;922495;-79
2022/10/01 03:54:14;;;;;;;14.49;12.79;;;;;;;16.44;100.00;101157.32;457258;115;930500;-79
2022/10/01 03:55:18;;;;;;;12.96;11.72;;;;;;;16.44;100.00;101157.32;457218;113;930300;-82
2022/10/01 03:56:21;;;;;;;13.68;11.75;;;;;;;16.44;100.00;101158.16;457214;115;930339;-81
2022/10/01 03:57:23;;;;;;;13.44;12.30;;;;;;;16.45;100.00;101164.50;457325;116;922951;-82
2022/10/01 03:58:26;;;;;;;13.59;12.07;;;;;;;16.45;100.00;101164.50;457329;116;923060;-81
2022/10/01 03:59:28;;;;;;;14.31;12.65;;;;;;;16.46;100.00;101163.44;457318;116;924674;-80
2022/10/01 04:00:31;;;;;;;13.76;11.71;;;;;;;16.45;100.00;101165.34;457226;113;930375;-79
2022/10/01 04:01:34;;;;;;;14.30;12.50;;;;;;;16.45;100.00;101170.85;457382;115;922964;-80
2022/10/01 04:02:38;;;;;;;14.07;12.58;;;;;;;16.45;100.00;101167.26;457291;116;923132;-79
2022/10/01 04:03:42;;;;;;;12.91;11.72;;;;;;;16.45;100.00;101167.26;457258;115;930226;-80
2022/10/01 04:04:44;;;;;;;17.34;13.53;;;;;;;16.45;100.00;101164.50;457203;116;922452;-80
2022/10/01 04:05:47;;;;;;;13.53;12.29;;;;;;;16.44;100.00;101171.08;457308;113;922590;-79
2022/10/01 04:06:52;;;;;;;14.38;13.01;;;;;;;16.43;99.99;101163.92;457193;115;930311;-81
2022/10/01 04:07:55;;;;;;;14.33;12.88;;;;;;;16.42;99.98;101163.09;457329;115;922989;-82
2022/10/01 04:08:57;;;;;;;13.74;12.33;;;;;;;16.40;100.00;101167.98;457368;115;922706;-80
2022/10/01 04:10:00;;;;;;;14.39;12.45;;;;;;;16.40;100.00;101176.23;457284;113;923061;-79
2022/10/01 04:11:05;;;;;;;13.36;12.04;;;;;;;16.39;99.95;101171.80;457158;115;930360;-81
2022/10/01 04:12:08;;;;;;;13.88;12.59;;;;;;;16.39;100.00;101176.47;457223;115;922461;-80
2022/10/01 04:13:11;;;;;;;13.85;12.58;;;;;;;16.39;100.00;101174.55;457269;115;922497;-80
2022/10/01 04:14:14;;;;;;;14.50;13.04;;;;;;;16.39;100.00;101177.31;457228;115;922934;-80
2022/10/01 04:15:17;;;;;;;14.79;13.47;;;;;;;16.39;100.00;101174.55;457242;113;922500;-78
2022/10/01 04:16:19;;;;;;;16.53;13.18;;;;;;;16.39;100.00;101174.55;457175;116;930751;-78
2022/10/01 04:17:22;;;;;;;14.40;13.10;;;;;;;16.39;100.00;101171.80;457218;116;930690;-81
2022/10/01 04:18:25;;;;;;;14.61;12.33;;;;;;;16.38;100.00;101180.30;457266;116;922801;-82
2022/10/01 04:19:28;;;;;;;13.38;12.23;;;;;;;16.38;100.00;101178.38;457292;116;923025;-79
2022/10/01 04:20:32;;;;;;;13.62;12.36;;;;;;;16.38;100.00;101180.30;457214;116;922572;-80
2022/10/01 04:21:37;;;;;;;15.55;12.94;;;;;;;16.39;100.00;101173.72;457185;116;922482;-79
2022/10/01 04:22:41;;;;;;;15.85;12.08;;;;;;;16.40;100.00;101180.90;457126;116;923050;-79
2022/10/01 04:23:44;;;;;;;14.01;12.62;;;;;;;16.40;100.00;101175.40;457147;116;922503;-79
2022/10/01 04:24:47;;;;;;;14.29;12.81;;;;;;;16.41;100.00;101180.67;457237;116;922525;-81
2022/10/01 04:25:50;;;;;;;14.59;13.29;;;;;;;16.42;100.00;101182.35;457267;116;922623;-79
2022/10/01 04:26:53;;;;;;;14.52;12.60;;;;;;;16.43;100.00;101183.20;457270;115;922651;-81
2022/10/01 04:28:01;;;;;;;14.42;12.93;;;;;;;16.43;100.00;101186.75;457237;116;922921;-81
2022/10/01 04:29:04;;;;;;;14.99;13.62;;;;;;;16.45;100.00;101192.87;457081;116;923028;-80
2022/10/01 04:30:09;;;;;;;15.13;13.68;;;;;;;16.47;100.00;101195.39;455556;116;923352;-80
2022/10/01 04:31:24;;;;;;;14.32;13.03;;;;;;;16.49;100.00;101193.22;454654;116;923123;-80
2022/10/01 04:32:28;;;;;;;14.29;12.87;;;;;;;16.50;100.00;101189.40;457108;116;923318;-80
2022/10/01 04:33:30;;;;;;;14.09;12.11;;;;;;;16.52;100.00;101195.52;457322;115;922695;-79
2022/10/01 04:34:51;;;;;;;13.73;12.45;;;;;;;16.54;100.00;101193.37;457345;115;922588;-81
2022/10/01 04:35:54;;;;;;;;;;;;;;;16.56;100.00;101196.70;460897;116;929948;-79
2022/10/01 04:36:57;;;;;;;13.53;12.34;;;;;;;16.56;100.00;101192.04;457356;116;922629;-80
2022/10/01 04:38:03;;;;;;;15.06;13.76;;;;;;;16.54;100.00;101190.63;457247;115;930340;-80
2022/10/01 04:39:06;;;;;;;14.73;13.39;;;;;;;16.54;100.00;101191.42;449199;117;923164;-80
2022/10/01 04:40:12;;;;;;;15.24;13.68;;;;;;;16.55;100.00;101189.52;442921;117;923069;-80
2022/10/01 04:41:15;;;;;;;15.11;13.53;;;;;;;16.53;100.00;101195.28;450881;116;923026;-79
2022/10/01 04:42:19;;;;;;;15.31;13.35;;;;;;;16.55;100.00;101195.02;457364;115;922603;-81
2022/10/01 04:43:22;;;;;;;14.40;13.04;;;;;;;16.55;100.00;101192.27;457247;115;922516;-77
2022/10/01 04:44:24;;;;;;;13.87;12.29;;;;;;;16.56;100.00;101193.95;457286;116;930385;-81
2022/10/01 04:45:27;;;;;;;13.67;12.46;;;;;;;16.56;100.00;101203.05;457279;113;930310;-78
2022/10/01 04:46:30;;;;;;;14.49;13.08;;;;;;;16.57;100.00;101201.98;457328;115;922503;-79
2022/10/01 04:47:33;;;;;;;16.88;13.99;;;;;;;16.58;100.00;101203.66;457338;116;923011;-79
2022/10/01 04:48:38;;;;;;;14.19;12.89;;;;;;;16.59;100.00;101207.28;457139;115;922426;-77
2022/10/01 04:49:40;;;;;;;14.47;13.06;;;;;;;16.60;100.00;101208.94;457327;116;923000;-79
2022/10/01 04:50:43;;;;;;;15.57;13.79;;;;;;;16.60;100.00;101201.52;457335;113;922561;-81
2022/10/01 04:51:46;;;;;;;14.45;13.16;;;;;;;16.60;100.00;101209.78;457259;116;930307;-79
2022/10/01 04:52:50;;;;;;;15.75;13.88;;;;;;;16.61;100.00;101216.13;455797;115;922839;-79
2022/10/01 04:53:53;;;;;;;14.09;12.74;;;;;;;16.61;100.00;101216.97;455525;116;923006;-81
2022/10/01 04:54:56;;;;;;;15.63;14.14;;;;;;;16.62;100.00;101221.41;455603;114;923073;-77
2022/10/01 04:55:58;;;;;;;14.90;13.51;;;;;;;16.62;100.00;101215.89;455617;116;922581;-78
2022/10/01 04:57:01;;;;;;;15.22;13.73;;;;;;;16.65;100.00;101214.56;455565;116;930338;-81
2022/10/01 04:58:04;;;;;;;14.37;13.07;;;;;;;16.67;100.00;101220.68;455595;116;930409;-80
2022/10/01 04:59:07;;;;;;;14.23;12.90;;;;;;;16.67;100.00;101220.68;455555;116;930357;-82
2022/10/01 05:00:13;;;;;;;14.37;13.00;;;;;;;16.68;100.00;101225.11;455634;116;923002;-80
2022/10/01 05:01:16;;;;;;;13.66;12.46;;;;;;;16.68;100.00;101217.70;455420;116;923062;-81
2022/10/01 05:02:20;;;;;;;14.26;13.07;;;;;;;16.69;100.00;101232.30;455621;116;923018;-78